sensor_id;sensor_type;location;lat;lon;timestamp;temperature;humidity
47090;DHT22;32840;52.516;13.294;2022-10-15T00:00:09;14.70;99.90
47090;DHT22;32840;52.516;13.294;2022-10-15T00:02:55;14.70;99.90
47090;DHT22;32840;52.516;13.294;2022-10-15T00:05:40;14.70;99.90
47090;DHT22;32840;52.516;13.294;2022-10-15T00:08:25;14.70;99.90
47090;DHT22;32840;52.516;13.294;2022-10-15T00:11:16;14.70;99.90
47090;DHT22;32840;52.516;13.294;2022-10-15T00:14:01;14.70;99.90
47090;DHT22;32840;52.516;13.294;2022-10-15T00:16:46;14.70;99.90
47090;DHT22;32840;52.516;13.294;2022-10-15T00:19:31;14.70;99.90
47090;DHT22;32840;52.516;13.294;2022-10-15T00:22:16;14.70;99.90
47090;DHT22;32840;52.516;13.294;2022-10-15T00:25:01;14.70;99.90
47090;DHT22;32840;52.516;13.294;2022-10-15T00:27:46;14.60;99.90
47090;DHT22;32840;52.516;13.294;2022-10-15T00:30:31;14.60;99.90
47090;DHT22;32840;52.516;13.294;2022-10-15T00:33:15;14.60;99.90
47090;DHT22;32840;52.516;13.294;2022-10-15T00:36:15;14.60;99.90
47090;DHT22;32840;52.516;13.294;2022-10-15T00:39:02;14.60;99.90
47090;DHT22;32840;52.516;13.294;2022-10-15T00:41:47;14.60;99.90
47090;DHT22;32840;52.516;13.294;2022-10-15T00:44:53;14.60;99.90
47090;DHT22;32840;52.516;13.294;2022-10-15T00:47:40;14.60;99.90
47090;DHT22;32840;52.516;13.294;2022-10-15T00:50:27;14.50;99.90
47090;DHT22;32840;52.516;13.294;2022-10-15T00:53:12;14.50;99.90
47090;DHT22;32840;52.516;13.294;2022-10-15T00:55:58;14.50;99.90
47090;DHT22;32840;52.516;13.294;2022-10-15T00:58:43;14.50;99.90
47090;DHT22;32840;52.516;13.294;2022-10-15T01:01:28;14.50;99.90
47090;DHT22;32840;52.516;13.294;2022-10-15T01:04:13;14.50;99.90
47090;DHT22;32840;52.516;13.294;2022-10-15T01:07:01;14.50;99.90
47090;DHT22;32840;52.516;13.294;2022-10-15T01:09:46;14.50;99.90
47090;DHT22;32840;52.516;13.294;2022-10-15T01:15:28;14.50;99.90
47090;DHT22;32840;52.516;13.294;2022-10-15T01:18:21;14.50;99.90
47090;DHT22;32840;52.516;13.294;2022-10-15T01:21:18;14.50;99.90
47090;DHT22;32840;52.516;13.294;2022-10-15T01:27:37;14.50;99.90
47090;DHT22;32840;52.516;13.294;2022-10-15T01:30:30;14.50;99.90
47090;DHT22;32840;52.516;13.294;2022-10-15T01:33:33;14.50;99.90
47090;DHT22;32840;52.516;13.294;2022-10-15T01:36:58;14.50;99.90
47090;DHT22;32840;52.516;13.294;2022-10-15T01:39:56;14.50;99.90
47090;DHT22;32840;52.516;13.294;2022-10-15T01:42:56;14.50;99.90
47090;DHT22;32840;52.516;13.294;2022-10-15T01:45:51;14.50;99.90
47090;DHT22;32840;52.516;13.294;2022-10-15T01:48:37;14.40;99.90
47090;DHT22;32840;52.516;13.294;2022-10-15T01:51:24;14.50;99.90
47090;DHT22;32840;52.516;13.294;2022-10-15T01:54:13;14.50;99.90
47090;DHT22;32840;52.516;13.294;2022-10-15T01:57:00;14.50;99.90
47090;DHT22;32840;52.516;13.294;2022-10-15T01:59:46;14.50;99.90
47090;DHT22;32840;52.516;13.294;2022-10-15T02:02:31;14.50;99.90
47090;DHT22;32840;52.516;13.294;2022-10-15T02:05:20;14.50;99.90
47090;DHT22;32840;52.516;13.294;2022-10-15T02:08:39;14.50;99.90
47090;DHT22;32840;52.516;13.294;2022-10-15T02:11:29;14.50;99.90
47090;DHT22;32840;52.516;13.294;2022-10-15T02:14:21;14.50;99.90
47090;DHT22;32840;52.516;13.294;2022-10-15T02:17:09;14.50;99.90
47090;DHT22;32840;52.516;13.294;2022-10-15T02:19:59;14.50;99.90
47090;DHT22;32840;52.516;13.294;2022-10-15T02:22:54;14.50;99.90
47090;DHT22;32840;52.516;13.294;2022-10-15T02:25:41;14.50;99.90
47090;DHT22;32840;52.516;13.294;2022-10-15T02:28:28;14.50;99.90
47090;DHT22;32840;52.516;13.294;2022-10-15T02:31:16;14.50;99.90
47090;DHT22;32840;52.516;13.294;2022-10-15T02:34:05;14.50;99.90
47090;DHT22;32840;52.516;13.294;2022-10-15T02:36:51;14.50;99.90
47090;DHT22;32840;52.516;13.294;2022-10-15T02:39:37;14.60;99.90
47090;DHT22;32840;52.516;13.294;2022-10-15T02:42:22;14.50;99.90
47090;DHT22;32840;52.516;13.294;2022-10-15T02:45:08;14.50;99.90
47090;DHT22;32840;52.516;13.294;2022-10-15T02:47:53;14.50;99.90
47090;DHT22;32840;52.516;13.294;2022-10-15T02:50:38;14.50;99.90
47090;DHT22;32840;52.516;13.294;2022-10-15T02:53:23;14.50;99.90
47090;DHT22;32840;52.516;13.294;2022-10-15T02:56:07;14.40;99.90
47090;DHT22;32840;52.516;13.294;2022-10-15T02:58:52;14.50;99.90
47090;DHT22;32840;52.516;13.294;2022-10-15T03:01:37;14.50;99.90
47090;DHT22;32840;52.516;13.294;2022-10-15T03:04:22;14.50;99.90
47090;DHT22;32840;52.516;13.294;2022-10-15T03:07:07;14.40;99.90
47090;DHT22;32840;52.516;13.294;2022-10-15T03:09:52;14.40;99.90
47090;DHT22;32840;52.516;13.294;2022-10-15T03:12:37;14.40;99.90
47090;DHT22;32840;52.516;13.294;2022-10-15T03:15:22;14.40;99.90
47090;DHT22;32840;52.516;13.294;2022-10-15T03:18:07;14.40;99.90
47090;DHT22;32840;52.516;13.294;2022-10-15T03:20:56;14.40;99.90
47090;DHT22;32840;52.516;13.294;2022-10-15T03:23:41;14.40;99.90
47090;DHT22;32840;52.516;13.294;2022-10-15T03:26:26;14.30;99.90
47090;DHT22;32840;52.516;13.294;2022-10-15T03:29:11;14.30;99.90
47090;DHT22;32840;52.516;13.294;2022-10-15T03:31:56;14.30;99.90
47090;DHT22;32840;52.516;13.294;2022-10-15T03:34:41;14.20;99.90
47090;DHT22;32840;52.516;13.294;2022-10-15T03:37:26;14.20;99.90
47090;DHT22;32840;52.516;13.294;2022-10-15T03:40:11;14.20;99.90
47090;DHT22;32840;52.516;13.294;2022-10-15T03:42:56;14.20;99.90
47090;DHT22;32840;52.516;13.294;2022-10-15T03:45:41;14.20;99.90
47090;DHT22;32840;52.516;13.294;2022-10-15T03:48:26;14.20;99.90
47090;DHT22;32840;52.516;13.294;2022-10-15T03:51:11;14.20;99.90
47090;DHT22;32840;52.516;13.294;2022-10-15T03:53:56;14.10;99.90
47090;DHT22;32840;52.516;13.294;2022-10-15T03:56:40;14.10;99.90
47090;DHT22;32840;52.516;13.294;2022-10-15T03:59:26;14.10;99.90
47090;DHT22;32840;52.516;13.294;2022-10-15T04:02:10;14.10;99.90
47090;DHT22;32840;52.516;13.294;2022-10-15T04:04:56;14.10;99.90
47090;DHT22;32840;52.516;13.294;2022-10-15T04:07:40;14.10;99.90
47090;DHT22;32840;52.516;13.294;2022-10-15T04:10:26;14.10;99.90
47090;DHT22;32840;52.516;13.294;2022-10-15T04:13:11;14.10;99.90
47090;DHT22;32840;52.516;13.294;2022-10-15T04:15:56;14.10;99.90
47090;DHT22;32840;52.516;13.294;2022-10-15T04:18:41;14.10;99.90
47090;DHT22;32840;52.516;13.294;2022-10-15T04:21:27;14.10;99.90
47090;DHT22;32840;52.516;13.294;2022-10-15T04:24:12;14.10;99.90
47090;DHT22;32840;52.516;13.294;2022-10-15T04:26:56;14.10;99.90
47090;DHT22;32840;52.516;13.294;2022-10-15T04:29:41;14.00;99.90
47090;DHT22;32840;52.516;13.294;2022-10-15T04:32:26;14.00;99.90
47090;DHT22;32840;52.516;13.294;2022-10-15T04:35:11;14.00;99.90
47090;DHT22;32840;52.516;13.294;2022-10-15T04:37:57;14.00;99.90
47090;DHT22;32840;52.516;13.294;2022-10-15T04:40:43;14.00;99.90
47090;DHT22;32840;52.516;13.294;2022-10-15T04:43:28;14.00;99.90
47090;DHT22;32840;52.516;13.294;2022-10-15T04:46:13;14.00;99.90
47090;DHT22;32840;52.516;13.294;2022-10-15T04:48:58;14.10;99.90
47090;DHT22;32840;52.516;13.294;2022-10-15T04:51:43;14.10;99.90
47090;DHT22;32840;52.516;13.294;2022-10-15T04:54:28;14.10;99.90
47090;DHT22;32840;52.516;13.294;2022-10-15T04:57:13;14.20;99.90
47090;DHT22;32840;52.516;13.294;2022-10-15T04:59:58;14.20;99.90
47090;DHT22;32840;52.516;13.294;2022-10-15T05:02:43;14.20;99.90
47090;DHT22;32840;52.516;13.294;2022-10-15T05:05:28;14.20;99.90
47090;DHT22;32840;52.516;13.294;2022-10-15T05:08:13;14.20;99.90
47090;DHT22;32840;52.516;13.294;2022-10-15T05:11:03;14.20;99.90
47090;DHT22;32840;52.516;13.294;2022-10-15T05:13:48;14.20;99.90
47090;DHT22;32840;52.516;13.294;2022-10-15T05:16:33;14.20;99.90
47090;DHT22;32840;52.516;13.294;2022-10-15T05:19:18;14.20;99.90
47090;DHT22;32840;52.516;13.294;2022-10-15T05:22:03;14.10;99.90
47090;DHT22;32840;52.516;13.294;2022-10-15T05:24:49;14.00;99.90
47090;DHT22;32840;52.516;13.294;2022-10-15T05:27:34;14.00;99.90
47090;DHT22;32840;52.516;13.294;2022-10-15T05:30:19;13.90;99.90
47090;DHT22;32840;52.516;13.294;2022-10-15T05:33:04;13.80;99.90
47090;DHT22;32840;52.516;13.294;2022-10-15T05:35:49;13.80;99.90
47090;DHT22;32840;52.516;13.294;2022-10-15T05:38:34;13.80;99.90
47090;DHT22;32840;52.516;13.294;2022-10-15T05:41:20;13.80;99.90
47090;DHT22;32840;52.516;13.294;2022-10-15T05:44:05;13.90;99.90
47090;DHT22;32840;52.516;13.294;2022-10-15T05:46:50;13.90;99.90
47090;DHT22;32840;52.516;13.294;2022-10-15T05:49:35;13.80;99.90
47090;DHT22;32840;52.516;13.294;2022-10-15T05:52:20;13.80;99.90
47090;DHT22;32840;52.516;13.294;2022-10-15T05:55:05;13.80;99.90
47090;DHT22;32840;52.516;13.294;2022-10-15T05:57:50;13.70;99.90
47090;DHT22;32840;52.516;13.294;2022-10-15T06:00:35;13.70;99.90
47090;DHT22;32840;52.516;13.294;2022-10-15T06:03:20;13.70;99.90
47090;DHT22;32840;52.516;13.294;2022-10-15T06:06:17;13.70;99.90
47090;DHT22;32840;52.516;13.294;2022-10-15T06:09:02;13.60;99.90
47090;DHT22;32840;52.516;13.294;2022-10-15T06:11:47;13.60;99.90
47090;DHT22;32840;52.516;13.294;2022-10-15T06:14:32;13.60;99.90
47090;DHT22;32840;52.516;13.294;2022-10-15T06:17:17;13.60;99.90
47090;DHT22;32840;52.516;13.294;2022-10-15T06:20:02;13.60;99.90
47090;DHT22;32840;52.516;13.294;2022-10-15T06:22:47;13.60;99.90
47090;DHT22;32840;52.516;13.294;2022-10-15T06:25:32;13.60;99.90
47090;DHT22;32840;52.516;13.294;2022-10-15T06:28:17;13.60;99.90
47090;DHT22;32840;52.516;13.294;2022-10-15T06:31:03;13.70;99.90
47090;DHT22;32840;52.516;13.294;2022-10-15T06:33:49;13.70;99.90
47090;DHT22;32840;52.516;13.294;2022-10-15T06:36:33;13.80;99.90
47090;DHT22;32840;52.516;13.294;2022-10-15T06:39:18;13.80;99.90
47090;DHT22;32840;52.516;13.294;2022-10-15T06:42:03;13.90;99.90
47090;DHT22;32840;52.516;13.294;2022-10-15T06:44:48;14.00;99.90
47090;DHT22;32840;52.516;13.294;2022-10-15T06:47:33;14.00;99.90
47090;DHT22;32840;52.516;13.294;2022-10-15T06:50:18;14.00;99.90
47090;DHT22;32840;52.516;13.294;2022-10-15T06:53:04;14.00;99.90
47090;DHT22;32840;52.516;13.294;2022-10-15T06:55:49;14.00;99.90
47090;DHT22;32840;52.516;13.294;2022-10-15T06:58:33;14.00;99.90
47090;DHT22;32840;52.516;13.294;2022-10-15T07:01:18;14.00;99.90
47090;DHT22;32840;52.516;13.294;2022-10-15T07:04:03;14.10;99.90
47090;DHT22;32840;52.516;13.294;2022-10-15T07:06:49;14.20;99.90
47090;DHT22;32840;52.516;13.294;2022-10-15T07:09:34;14.30;99.90
47090;DHT22;32840;52.516;13.294;2022-10-15T07:12:20;14.30;99.90
47090;DHT22;32840;52.516;13.294;2022-10-15T07:15:05;14.30;99.90
47090;DHT22;32840;52.516;13.294;2022-10-15T07:17:53;14.40;99.90
47090;DHT22;32840;52.516;13.294;2022-10-15T07:20:44;14.50;99.90
47090;DHT22;32840;52.516;13.294;2022-10-15T07:23:29;14.50;99.90
47090;DHT22;32840;52.516;13.294;2022-10-15T07:26:15;14.50;99.90
47090;DHT22;32840;52.516;13.294;2022-10-15T07:29:00;14.60;99.90
47090;DHT22;32840;52.516;13.294;2022-10-15T07:31:45;14.60;99.90
47090;DHT22;32840;52.516;13.294;2022-10-15T07:34:30;14.70;99.90
47090;DHT22;32840;52.516;13.294;2022-10-15T07:37:15;14.70;99.90
47090;DHT22;32840;52.516;13.294;2022-10-15T07:39:59;14.70;99.90
47090;DHT22;32840;52.516;13.294;2022-10-15T07:42:51;14.80;99.90
47090;DHT22;32840;52.516;13.294;2022-10-15T07:45:36;14.80;99.90
47090;DHT22;32840;52.516;13.294;2022-10-15T07:48:21;14.90;99.90
47090;DHT22;32840;52.516;13.294;2022-10-15T07:51:07;14.90;99.90
47090;DHT22;32840;52.516;13.294;2022-10-15T07:53:54;14.90;99.90
47090;DHT22;32840;52.516;13.294;2022-10-15T07:56:38;15.00;99.90
47090;DHT22;32840;52.516;13.294;2022-10-15T07:59:23;15.00;99.90
47090;DHT22;32840;52.516;13.294;2022-10-15T08:02:16;15.10;99.90
47090;DHT22;32840;52.516;13.294;2022-10-15T08:05:01;15.20;99.90
47090;DHT22;32840;52.516;13.294;2022-10-15T08:07:46;15.20;99.90
47090;DHT22;32840;52.516;13.294;2022-10-15T08:10:31;15.30;99.90
47090;DHT22;32840;52.516;13.294;2022-10-15T08:13:16;15.30;99.90
47090;DHT22;32840;52.516;13.294;2022-10-15T08:16:01;15.40;99.90
47090;DHT22;32840;52.516;13.294;2022-10-15T08:18:46;15.50;99.90
47090;DHT22;32840;52.516;13.294;2022-10-15T08:21:31;15.50;99.90
47090;DHT22;32840;52.516;13.294;2022-10-15T08:24:16;15.70;99.90
47090;DHT22;32840;52.516;13.294;2022-10-15T08:27:01;15.70;99.90
47090;DHT22;32840;52.516;13.294;2022-10-15T08:29:46;15.80;99.90
47090;DHT22;32840;52.516;13.294;2022-10-15T08:32:31;15.90;99.90
47090;DHT22;32840;52.516;13.294;2022-10-15T08:35:16;15.90;99.90
47090;DHT22;32840;52.516;13.294;2022-10-15T08:38:01;16.00;99.90
47090;DHT22;32840;52.516;13.294;2022-10-15T08:40:52;16.00;99.90
47090;DHT22;32840;52.516;13.294;2022-10-15T08:43:42;16.10;99.90
47090;DHT22;32840;52.516;13.294;2022-10-15T08:46:43;16.00;99.90
47090;DHT22;32840;52.516;13.294;2022-10-15T08:49:34;16.10;99.90
47090;DHT22;32840;52.516;13.294;2022-10-15T08:52:43;16.10;99.90
47090;DHT22;32840;52.516;13.294;2022-10-15T08:55:33;16.10;99.90
47090;DHT22;32840;52.516;13.294;2022-10-15T09:01:50;16.30;99.90
47090;DHT22;32840;52.516;13.294;2022-10-15T09:04:46;16.50;99.90
47090;DHT22;32840;52.516;13.294;2022-10-15T09:07:40;16.50;99.90
47090;DHT22;32840;52.516;13.294;2022-10-15T09:10:45;16.50;99.90
47090;DHT22;32840;52.516;13.294;2022-10-15T09:13:39;16.50;99.90
47090;DHT22;32840;52.516;13.294;2022-10-15T09:16:34;16.60;99.90
47090;DHT22;32840;52.516;13.294;2022-10-15T09:19:21;16.70;99.90
47090;DHT22;32840;52.516;13.294;2022-10-15T09:22:11;16.70;99.90
47090;DHT22;32840;52.516;13.294;2022-10-15T09:24:58;16.70;99.90
47090;DHT22;32840;52.516;13.294;2022-10-15T09:27:45;16.70;99.90
47090;DHT22;32840;52.516;13.294;2022-10-15T09:30:48;16.70;99.90
47090;DHT22;32840;52.516;13.294;2022-10-15T09:33:49;16.80;99.90
47090;DHT22;32840;52.516;13.294;2022-10-15T09:42:40;16.90;99.90
47090;DHT22;32840;52.516;13.294;2022-10-15T09:45:26;17.00;99.90
47090;DHT22;32840;52.516;13.294;2022-10-15T09:48:16;17.10;99.90
47090;DHT22;32840;52.516;13.294;2022-10-15T09:51:09;17.10;99.90
47090;DHT22;32840;52.516;13.294;2022-10-15T09:54:22;17.20;99.90
47090;DHT22;32840;52.516;13.294;2022-10-15T09:57:12;17.30;99.90
47090;DHT22;32840;52.516;13.294;2022-10-15T10:00:00;17.40;99.90
47090;DHT22;32840;52.516;13.294;2022-10-15T10:03:06;17.50;99.90
47090;DHT22;32840;52.516;13.294;2022-10-15T10:06:19;17.40;99.90
47090;DHT22;32840;52.516;13.294;2022-10-15T10:09:03;17.40;99.90
47090;DHT22;32840;52.516;13.294;2022-10-15T10:11:51;17.30;99.90
47090;DHT22;32840;52.516;13.294;2022-10-15T10:14:57;17.30;99.90
47090;DHT22;32840;52.516;13.294;2022-10-15T10:17:51;17.40;99.90
47090;DHT22;32840;52.516;13.294;2022-10-15T10:20:55;17.30;99.90
47090;DHT22;32840;52.516;13.294;2022-10-15T10:23:42;17.40;99.90
47090;DHT22;32840;52.516;13.294;2022-10-15T10:26:33;17.40;99.90
47090;DHT22;32840;52.516;13.294;2022-10-15T10:29:20;17.30;99.90
47090;DHT22;32840;52.516;13.294;2022-10-15T10:32:21;17.30;99.90
47090;DHT22;32840;52.516;13.294;2022-10-15T10:35:33;17.40;99.90
47090;DHT22;32840;52.516;13.294;2022-10-15T10:38:21;17.50;99.90
47090;DHT22;32840;52.516;13.294;2022-10-15T10:41:08;17.60;99.90
47090;DHT22;32840;52.516;13.294;2022-10-15T10:43:54;17.60;99.90
47090;DHT22;32840;52.516;13.294;2022-10-15T10:46:39;17.60;99.90
47090;DHT22;32840;52.516;13.294;2022-10-15T10:49:32;17.60;99.90
47090;DHT22;32840;52.516;13.294;2022-10-15T10:55:18;17.80;99.90
47090;DHT22;32840;52.516;13.294;2022-10-15T10:58:03;17.90;99.90
47090;DHT22;32840;52.516;13.294;2022-10-15T11:00:51;17.90;99.90
47090;DHT22;32840;52.516;13.294;2022-10-15T11:03:39;17.90;99.90
47090;DHT22;32840;52.516;13.294;2022-10-15T11:16:48;18.20;99.90
47090;DHT22;32840;52.516;13.294;2022-10-15T11:28:06;18.30;99.90
47090;DHT22;32840;52.516;13.294;2022-10-15T11:31:18;18.30;99.90
47090;DHT22;32840;52.516;13.294;2022-10-15T11:34:27;18.30;99.90
47090;DHT22;32840;52.516;13.294;2022-10-15T11:37:46;18.30;99.90
47090;DHT22;32840;52.516;13.294;2022-10-15T11:40:57;18.20;99.90
47090;DHT22;32840;52.516;13.294;2022-10-15T11:47:19;18.20;99.90
47090;DHT22;32840;52.516;13.294;2022-10-15T11:51:18;18.20;99.90
47090;DHT22;32840;52.516;13.294;2022-10-15T11:56:35;18.10;99.90
47090;DHT22;32840;52.516;13.294;2022-10-15T12:02:19;17.90;99.90
47090;DHT22;32840;52.516;13.294;2022-10-15T12:05:16;18.00;99.90
47090;DHT22;32840;52.516;13.294;2022-10-15T12:08:02;18.10;99.90
47090;DHT22;32840;52.516;13.294;2022-10-15T12:17:29;18.20;99.90
47090;DHT22;32840;52.516;13.294;2022-10-15T12:20:20;18.20;99.90
47090;DHT22;32840;52.516;13.294;2022-10-15T12:23:23;18.10;99.90
47090;DHT22;32840;52.516;13.294;2022-10-15T12:29:19;18.20;99.90
47090;DHT22;32840;52.516;13.294;2022-10-15T12:32:23;18.30;99.90
47090;DHT22;32840;52.516;13.294;2022-10-15T12:38:16;18.30;99.90
47090;DHT22;32840;52.516;13.294;2022-10-15T12:41:08;18.30;99.90
47090;DHT22;32840;52.516;13.294;2022-10-15T12:46:58;18.30;99.90
47090;DHT22;32840;52.516;13.294;2022-10-15T12:49:44;18.30;99.90
47090;DHT22;32840;52.516;13.294;2022-10-15T12:55:42;18.30;99.90
47090;DHT22;32840;52.516;13.294;2022-10-15T12:58:33;18.40;99.90
47090;DHT22;32840;52.516;13.294;2022-10-15T13:04:03;18.40;99.90
47090;DHT22;32840;52.516;13.294;2022-10-15T13:06:48;18.40;99.90
47090;DHT22;32840;52.516;13.294;2022-10-15T13:09:33;18.40;99.90
47090;DHT22;32840;52.516;13.294;2022-10-15T13:12:25;18.50;99.90
47090;DHT22;32840;52.516;13.294;2022-10-15T13:15:13;18.50;99.90
47090;DHT22;32840;52.516;13.294;2022-10-15T13:18:05;18.40;99.90
47090;DHT22;32840;52.516;13.294;2022-10-15T13:20:52;18.50;99.90
47090;DHT22;32840;52.516;13.294;2022-10-15T13:23:45;18.50;99.90
47090;DHT22;32840;52.516;13.294;2022-10-15T13:26:30;18.60;99.90
47090;DHT22;32840;52.516;13.294;2022-10-15T13:29:18;18.60;99.90
47090;DHT22;32840;52.516;13.294;2022-10-15T13:32:11;18.60;99.90
47090;DHT22;32840;52.516;13.294;2022-10-15T13:34:59;18.60;99.90
47090;DHT22;32840;52.516;13.294;2022-10-15T13:37:45;18.50;99.90
47090;DHT22;32840;52.516;13.294;2022-10-15T13:40:31;18.50;99.90
47090;DHT22;32840;52.516;13.294;2022-10-15T13:43:18;18.30;99.90
47090;DHT22;32840;52.516;13.294;2022-10-15T13:46:04;18.20;99.90
47090;DHT22;32840;52.516;13.294;2022-10-15T13:48:59;18.20;99.90
47090;DHT22;32840;52.516;13.294;2022-10-15T13:51:52;18.10;99.90
47090;DHT22;32840;52.516;13.294;2022-10-15T13:54:38;18.10;99.90
47090;DHT22;32840;52.516;13.294;2022-10-15T13:57:22;18.10;99.90
47090;DHT22;32840;52.516;13.294;2022-10-15T14:00:19;18.10;99.90
47090;DHT22;32840;52.516;13.294;2022-10-15T14:03:15;18.20;99.90
47090;DHT22;32840;52.516;13.294;2022-10-15T14:09:18;18.30;99.90
47090;DHT22;32840;52.516;13.294;2022-10-15T14:12:06;18.30;99.90
47090;DHT22;32840;52.516;13.294;2022-10-15T14:14:50;18.30;99.90
47090;DHT22;32840;52.516;13.294;2022-10-15T14:17:35;18.20;99.90
47090;DHT22;32840;52.516;13.294;2022-10-15T14:20:21;18.10;99.90
47090;DHT22;32840;52.516;13.294;2022-10-15T14:23:19;18.00;99.90
47090;DHT22;32840;52.516;13.294;2022-10-15T14:26:06;18.10;99.90
47090;DHT22;32840;52.516;13.294;2022-10-15T14:28:52;18.20;99.90
47090;DHT22;32840;52.516;13.294;2022-10-15T14:31:44;18.20;99.90
47090;DHT22;32840;52.516;13.294;2022-10-15T14:37:30;18.10;99.90
47090;DHT22;32840;52.516;13.294;2022-10-15T14:40:17;18.10;99.90
47090;DHT22;32840;52.516;13.294;2022-10-15T14:43:15;18.00;99.90
47090;DHT22;32840;52.516;13.294;2022-10-15T14:46:05;18.00;99.90
47090;DHT22;32840;52.516;13.294;2022-10-15T14:48:51;18.00;99.90
47090;DHT22;32840;52.516;13.294;2022-10-15T14:51:36;18.00;99.90
47090;DHT22;32840;52.516;13.294;2022-10-15T14:54:26;17.90;99.90
47090;DHT22;32840;52.516;13.294;2022-10-15T14:57:17;17.80;99.90
47090;DHT22;32840;52.516;13.294;2022-10-15T15:00:30;17.80;99.90
47090;DHT22;32840;52.516;13.294;2022-10-15T15:03:25;17.70;99.90
47090;DHT22;32840;52.516;13.294;2022-10-15T15:06:10;17.70;99.90
47090;DHT22;32840;52.516;13.294;2022-10-15T15:08:55;17.60;99.90
47090;DHT22;32840;52.516;13.294;2022-10-15T15:11:42;17.60;99.90
47090;DHT22;32840;52.516;13.294;2022-10-15T15:14:28;17.60;99.90
47090;DHT22;32840;52.516;13.294;2022-10-15T15:17:17;17.50;99.90
47090;DHT22;32840;52.516;13.294;2022-10-15T15:20:07;17.60;99.90
47090;DHT22;32840;52.516;13.294;2022-10-15T15:22:53;17.60;99.90
47090;DHT22;32840;52.516;13.294;2022-10-15T15:25:41;17.60;99.90
47090;DHT22;32840;52.516;13.294;2022-10-15T15:28:27;17.60;99.90
47090;DHT22;32840;52.516;13.294;2022-10-15T15:31:16;17.60;99.90
47090;DHT22;32840;52.516;13.294;2022-10-15T15:34:01;17.60;99.90
47090;DHT22;32840;52.516;13.294;2022-10-15T15:36:47;17.60;99.90
47090;DHT22;32840;52.516;13.294;2022-10-15T15:39:33;17.60;99.90
47090;DHT22;32840;52.516;13.294;2022-10-15T15:42:22;17.50;99.90
47090;DHT22;32840;52.516;13.294;2022-10-15T15:45:17;17.50;99.90
47090;DHT22;32840;52.516;13.294;2022-10-15T15:48:03;17.40;99.90
47090;DHT22;32840;52.516;13.294;2022-10-15T15:50:49;17.40;99.90
47090;DHT22;32840;52.516;13.294;2022-10-15T15:53:34;17.30;99.90
47090;DHT22;32840;52.516;13.294;2022-10-15T15:56:20;17.20;99.90
47090;DHT22;32840;52.516;13.294;2022-10-15T15:59:06;17.20;99.90
47090;DHT22;32840;52.516;13.294;2022-10-15T16:01:50;17.20;99.90
47090;DHT22;32840;52.516;13.294;2022-10-15T16:04:39;17.20;99.90
47090;DHT22;32840;52.516;13.294;2022-10-15T16:07:24;17.10;99.90
47090;DHT22;32840;52.516;13.294;2022-10-15T16:10:09;17.10;99.90
47090;DHT22;32840;52.516;13.294;2022-10-15T16:12:56;17.00;99.90
47090;DHT22;32840;52.516;13.294;2022-10-15T16:15:41;17.00;99.90
47090;DHT22;32840;52.516;13.294;2022-10-15T16:18:26;17.00;99.90
47090;DHT22;32840;52.516;13.294;2022-10-15T16:21:11;16.90;99.90
47090;DHT22;32840;52.516;13.294;2022-10-15T16:23:56;16.90;99.90
47090;DHT22;32840;52.516;13.294;2022-10-15T16:26:45;16.90;99.90
47090;DHT22;32840;52.516;13.294;2022-10-15T16:29:31;16.80;99.90
47090;DHT22;32840;52.516;13.294;2022-10-15T16:32:16;16.80;99.90
47090;DHT22;32840;52.516;13.294;2022-10-15T16:35:01;16.80;99.90
47090;DHT22;32840;52.516;13.294;2022-10-15T16:37:46;16.80;99.90
47090;DHT22;32840;52.516;13.294;2022-10-15T16:40:31;16.80;99.90
47090;DHT22;32840;52.516;13.294;2022-10-15T16:43:17;16.70;99.90
47090;DHT22;32840;52.516;13.294;2022-10-15T16:46:02;16.70;99.90
47090;DHT22;32840;52.516;13.294;2022-10-15T16:48:52;16.70;99.90
47090;DHT22;32840;52.516;13.294;2022-10-15T16:51:37;16.70;99.90
47090;DHT22;32840;52.516;13.294;2022-10-15T16:54:22;16.60;99.90
47090;DHT22;32840;52.516;13.294;2022-10-15T16:57:07;16.60;99.90
47090;DHT22;32840;52.516;13.294;2022-10-15T16:59:52;16.60;99.90
47090;DHT22;32840;52.516;13.294;2022-10-15T17:02:37;16.60;99.90
47090;DHT22;32840;52.516;13.294;2022-10-15T17:05:22;16.60;99.90
47090;DHT22;32840;52.516;13.294;2022-10-15T17:08:07;16.60;99.90
47090;DHT22;32840;52.516;13.294;2022-10-15T17:10:51;16.60;99.90
47090;DHT22;32840;52.516;13.294;2022-10-15T17:13:37;16.60;99.90
47090;DHT22;32840;52.516;13.294;2022-10-15T17:16:25;16.50;99.90
47090;DHT22;32840;52.516;13.294;2022-10-15T17:19:12;16.50;99.90
47090;DHT22;32840;52.516;13.294;2022-10-15T17:21:57;16.50;99.90
47090;DHT22;32840;52.516;13.294;2022-10-15T17:24:42;16.50;99.90
47090;DHT22;32840;52.516;13.294;2022-10-15T17:27:27;16.50;99.90
47090;DHT22;32840;52.516;13.294;2022-10-15T17:30:12;16.40;99.90
47090;DHT22;32840;52.516;13.294;2022-10-15T17:32:57;16.40;99.90
47090;DHT22;32840;52.516;13.294;2022-10-15T17:35:42;16.40;99.90
47090;DHT22;32840;52.516;13.294;2022-10-15T17:38:27;16.30;99.90
47090;DHT22;32840;52.516;13.294;2022-10-15T17:41:18;16.40;99.90
47090;DHT22;32840;52.516;13.294;2022-10-15T17:44:03;16.30;99.90
47090;DHT22;32840;52.516;13.294;2022-10-15T17:46:48;16.30;99.90
47090;DHT22;32840;52.516;13.294;2022-10-15T17:49:33;16.30;99.90
47090;DHT22;32840;52.516;13.294;2022-10-15T17:52:19;16.30;99.90
47090;DHT22;32840;52.516;13.294;2022-10-15T17:55:04;16.30;99.90
47090;DHT22;32840;52.516;13.294;2022-10-15T17:57:49;16.30;99.90
47090;DHT22;32840;52.516;13.294;2022-10-15T18:00:34;16.30;99.90
47090;DHT22;32840;52.516;13.294;2022-10-15T18:03:20;16.30;99.90
47090;DHT22;32840;52.516;13.294;2022-10-15T18:06:07;16.30;99.90
47090;DHT22;32840;52.516;13.294;2022-10-15T18:08:52;16.30;99.90
47090;DHT22;32840;52.516;13.294;2022-10-15T18:11:37;16.30;99.90
47090;DHT22;32840;52.516;13.294;2022-10-15T18:14:22;16.20;99.90
47090;DHT22;32840;52.516;13.294;2022-10-15T18:17:07;16.20;99.90
47090;DHT22;32840;52.516;13.294;2022-10-15T18:19:52;16.20;99.90
47090;DHT22;32840;52.516;13.294;2022-10-15T18:22:37;16.20;99.90
47090;DHT22;32840;52.516;13.294;2022-10-15T18:25:22;16.20;99.90
47090;DHT22;32840;52.516;13.294;2022-10-15T18:28:07;16.10;99.90
47090;DHT22;32840;52.516;13.294;2022-10-15T18:30:53;16.10;99.90
47090;DHT22;32840;52.516;13.294;2022-10-15T18:33:38;16.10;99.90
47090;DHT22;32840;52.516;13.294;2022-10-15T18:36:28;16.10;99.90
47090;DHT22;32840;52.516;13.294;2022-10-15T18:39:13;16.10;99.90